Latest Weather Observations for Naracoorte

IDS60801

Issued at 12:02 am CST Wednesday 23 September 2020 (issued every 10 minutes, with the page automatically refreshed every 10 minutes)

About weather observations | Map of weather stations | Latest weather observations for SA | Other Formats
Station Details ID: 026099 Name: NARACOORTE AERODROME Lat: -36.98 Lon: 140.73 Height: 49.72 m
Data from the previous 72 hours. | See also: Recent months at Naracoorte
Date/Time
CST
Temp
°C
App
Temp
°C
Dew
Point
°C
Rel
Hum
%
Delta-T
°C
Wind Press
QNH
hPa
Press
MSL
hPa
Rain since
9am
mm
Dir  Spd
km/h
Gust
km/h
Spd
kts
Gust
kts
23/12:00am 8.3 4.8 7.1 92 0.6 NNW 15 20 8 11 1012.8 1012.9 -
 
Date/Time
CST
Temp
°C
App
Temp
°C
Dew
Point
°C
Rel
Hum
%
Delta-T
°C
Wind Press
QNH
hPa
Press
MSL
hPa
Rain since
9am
mm
Dir  Spd
km/h
Gust
km/h
Spd
kts
Gust
kts
22/11:30pm 8.0 4.7 6.6 91 0.6 NNW 13 19 7 10 1012.8 1012.9 -
22/11:00pm 8.1 4.8 6.6 90 0.7 NNW 13 17 7 9 1012.9 1013.0 -
22/10:30pm 7.9 4.6 6.4 90 0.7 NNW 13 19 7 10 1012.9 1013.0 -
22/10:00pm 7.9 4.6 6.4 90 0.7 NNW 13 17 7 9 1013.0 1013.1 -
22/09:30pm 9.0 5.5 7.1 88 0.9 NW 15 19 8 10 1013.0 1013.1 -
22/09:00pm 9.4 6.0 7.5 88 0.9 NW 15 20 8 11 1012.9 1013.0 0.0
22/08:30pm 9.7 6.0 7.8 88 0.9 WNW 17 20 9 11 1012.8 1012.9 -
22/08:00pm 9.7 6.0 8.0 89 0.8 WNW 17 20 9 11 1012.6 1012.7 -
22/07:30pm 9.9 6.2 7.8 87 1.0 WNW 17 22 9 12 1012.3 1012.4 -
22/07:00pm 10.5 6.5 8.3 86 1.1 WNW 19 24 10 13 1011.8 1011.8 -
22/06:30pm 11.3 6.8 8.5 83 1.4 WNW 22 30 12 16 1011.4 1011.4 -
22/06:00pm 11.3 7.2 8.5 83 1.4 WNW 20 26 11 14 1011.0 1011.0 -
22/05:30pm 11.9 7.0 8.4 79 1.7 WNW 24 35 13 19 1010.7 1010.7 -
22/05:00pm 12.6 5.7 8.9 78 1.9 W 35 43 19 23 1010.4 1010.4 -
22/04:30pm 13.6 5.6 7.4 66 3.0 WNW 39 52 21 28 1009.7 1009.7 -
22/04:00pm 14.7 7.5 7.7 63 3.5 W 35 50 19 27 1009.5 1009.5 -
22/03:30pm 14.5 7.2 7.3 62 3.6 W 35 46 19 25 1009.3 1009.3 -
22/03:00pm 15.1 6.2 6.7 57 4.1 W 43 57 23 31 1009.0 1009.0 -
22/02:30pm 15.1 5.8 7.6 61 3.7 W 46 57 25 31 1008.8 1008.8 -
22/02:21pm 15.6 7.8 8.1 61 3.8 W 39 57 21 31 1008.7 1008.7 -
22/02:00pm 15.3 6.8 7.1 58 4.0 W 41 56 22 30 1008.4 1008.4 -
22/01:30pm 15.1 6.5 8.1 63 3.5 W 43 54 23 29 1008.3 1008.3 -
22/01:00pm 15.1 5.6 8.3 64 3.4 W 48 59 26 32 1007.9 1007.9 -
22/12:30pm 14.4 4.8 9.4 72 2.6 W 50 63 27 34 1007.6 1007.6 -
22/12:17pm 14.9 6.7 9.7 71 2.7 W 43 61 23 33 1007.3 1007.3 -
22/12:00pm 14.2 5.4 9.4 73 2.5 W 46 59 25 32 1007.1 1007.1 -
22/11:30am 13.9 5.5 11.2 84 1.4 W 46 61 25 33 1006.7 1006.7 -
22/11:25am 13.1 3.9 10.8 86 1.2 W 50 69 27 37 1006.6 1006.6 -
22/10:35am 13.0 3.4 9.4 79 1.8 WNW 50 72 27 39 1005.9 1005.9 0.8
22/10:30am 13.8 4.5 10.6 81 1.7 WNW 50 63 27 34 1005.8 1005.8 0.8
22/10:00am 13.9 5.5 9.5 75 2.3 WNW 44 63 24 34 1005.4 1005.4 0.2
22/09:30am 12.3 3.7 10.2 87 1.1 NW 46 67 25 36 1005.5 1005.5 0.2
22/09:00am 11.6 4.6 9.9 89 0.9 WNW 37 59 20 32 1005.4 1005.4 5.8
22/08:56am 10.9 4.4 9.0 88 0.9 WNW 33 57 18 31 1005.3 1005.3 5.8
22/08:55am 11.2 4.8 9.5 89 0.9 WNW 33 44 18 24 1005.3 1005.3 5.4
22/08:30am 11.8 3.8 9.0 83 1.4 NW 41 59 22 32 1004.9 1004.9 3.6
22/08:07am 11.7 5.2 9.1 84 1.3 NW 33 52 18 28 1004.7 1004.7 3.4
22/08:00am 11.6 5.4 9.2 85 1.2 NW 32 39 17 21 1004.6 1004.6 3.4
22/07:46am 11.6 5.4 9.3 86 1.2 NNW 32 52 17 28 1004.6 1004.6 3.4
22/07:30am 11.0 5.4 8.8 86 1.1 NNW 28 41 15 22 1004.4 1004.4 3.2
22/07:00am 10.8 6.3 8.6 86 1.1 NNW 22 39 12 21 1004.3 1004.3 3.0
22/06:30am 10.4 4.8 8.7 89 0.8 NW 28 37 15 20 1004.2 1004.2 3.0
22/06:00am 10.3 5.8 8.4 88 0.9 NNW 22 30 12 16 1004.0 1004.0 2.2
22/05:30am 10.4 5.6 8.7 89 0.8 NNW 24 32 13 17 1003.7 1003.7 2.2
22/05:00am 9.9 5.3 8.3 90 0.8 NNW 22 30 12 16 1003.6 1003.6 2.2
22/04:30am 10.2 4.9 8.5 89 0.8 NNW 26 33 14 18 1003.4 1003.4 2.2
22/04:00am 9.9 5.3 8.2 89 0.8 NNW 22 32 12 17 1003.3 1003.3 2.2
22/03:30am 10.1 4.7 7.9 86 1.1 NNW 26 35 14 19 1003.3 1003.3 2.2
22/03:00am 10.3 5.4 8.4 88 0.9 NNW 24 33 13 18 1003.6 1003.6 2.2
22/02:30am 9.9 5.7 8.3 90 0.8 NNW 20 26 11 14 1003.6 1003.6 2.2
22/02:00am 10.2 6.0 8.3 88 0.9 NW 20 30 11 16 1003.8 1003.8 2.2
22/01:30am 10.6 5.4 8.9 89 0.8 NW 26 33 14 18 1004.1 1004.1 2.2
22/01:00am 10.6 6.6 9.0 90 0.8 NNW 20 30 11 16 1004.1 1004.1 2.0
22/12:30am 10.9 6.2 9.2 89 0.9 NNW 24 33 13 18 1004.2 1004.2 2.0
22/12:00am 10.6 6.2 9.0 90 0.8 NNW 22 32 12 17 1004.2 1004.2 2.0
 
Date/Time
CST
Temp
°C
App
Temp
°C
Dew
Point
°C
Rel
Hum
%
Delta-T
°C
Wind Press
QNH
hPa
Press
MSL
hPa
Rain since
9am
mm
Dir  Spd
km/h
Gust
km/h
Spd
kts
Gust
kts
21/11:30pm 9.8 5.6 8.2 90 0.8 NNW 20 28 11 15 1004.2 1004.2 2.0
21/11:00pm 10.2 6.0 8.3 88 0.9 NNW 20 28 11 15 1004.4 1004.4 2.0
21/10:30pm 10.3 5.4 8.6 89 0.8 NW 24 37 13 20 1004.4 1004.4 2.0
21/10:00pm 11.2 7.2 9.1 87 1.0 NW 20 28 11 15 1004.8 1004.8 1.4
21/09:30pm 11.4 7.0 9.1 86 1.2 NW 22 30 12 16 1004.7 1004.7 0.6
21/09:00pm 11.7 7.0 9.3 85 1.2 NW 24 32 13 17 1004.5 1004.5 0.6
21/08:30pm 11.6 7.3 9.5 87 1.1 WNW 22 32 12 17 1004.3 1004.3 0.6
21/08:00pm 12.4 7.1 10.0 85 1.2 WNW 28 35 15 19 1004.1 1004.1 0.4
21/07:30pm 13.6 8.8 8.7 72 2.5 NW 24 32 13 17 1003.5 1003.5 0.0
21/07:00pm 13.8 8.1 8.2 69 2.8 WNW 28 39 15 21 1003.3 1003.3 0.0
21/06:32pm 14.0 8.2 8.0 67 3.0 NW 28 46 15 25 1003.0 1003.0 0.0
21/06:30pm 14.0 8.3 8.2 68 2.9 NW 28 37 15 20 1002.9 1002.9 0.0
21/06:00pm 13.9 8.4 7.4 65 3.2 NW 26 37 14 20 1002.6 1002.6 0.0
21/05:30pm 14.2 7.7 6.6 60 3.7 WNW 30 39 16 21 1002.6 1002.6 0.0
21/05:00pm 14.5 6.6 6.1 57 4.0 WNW 37 56 20 30 1002.6 1002.6 0.0
21/04:30pm 15.7 5.7 4.1 46 5.4 WNW 46 67 25 36 1002.3 1002.3 0.0
21/04:01pm 16.4 5.6 6.2 51 5.0 WNW 52 70 28 38 1002.1 1002.1 0.0
21/04:00pm 16.4 5.2 5.7 49 5.2 WNW 54 70 29 38 1002.1 1002.1 0.0
21/03:42pm 16.7 8.3 7.4 54 4.7 WNW 41 59 22 32 1001.9 1001.9 0.0
21/03:30pm 16.5 7.2 7.4 55 4.6 WNW 46 63 25 34 1001.8 1001.8 0.0
21/03:14pm 16.6 6.9 7.3 54 4.6 WNW 48 67 26 36 1001.8 1001.8 0.0
21/03:00pm 17.4 6.4 6.9 50 5.3 WNW 54 67 29 36 1001.8 1001.8 0.0
21/02:30pm 16.9 5.7 5.8 48 5.4 NW 54 72 29 39 1001.7 1001.7 0.0
21/02:07pm 17.5 9.1 5.8 46 5.7 WNW 39 69 21 37 1001.7 1001.7 0.0
21/02:00pm 16.9 9.5 6.7 51 5.0 WNW 35 50 19 27 1001.8 1001.8 0.0
21/01:30pm 16.2 9.9 5.8 50 5.1 NW 28 43 15 23 1001.8 1001.8 0.0
21/01:03pm 16.3 9.1 5.0 47 5.4 NW 32 50 17 27 1002.0 1002.0 0.0
21/01:00pm 16.2 8.4 4.9 47 5.4 NW 35 50 19 27 1002.0 1002.0 0.0
21/12:30pm 17.5 9.5 5.8 46 5.7 NNW 37 57 20 31 1002.3 1002.3 0.0
21/12:10pm 17.6 9.6 3.9 40 6.4 NNW 35 54 19 29 1002.4 1002.4 0.0
21/12:00pm 17.4 10.4 6.0 47 5.6 NNW 32 43 17 23 1002.5 1002.5 0.0
21/11:30am 16.7 9.6 5.3 47 5.5 NNW 32 44 17 24 1002.9 1002.9 0.0
21/11:19am 16.7 10.1 4.4 44 5.8 NNW 28 52 15 28 1002.9 1002.9 0.0
21/11:00am 16.0 10.1 5.9 51 4.9 N 26 37 14 20 1003.1 1003.1 0.0
21/10:30am 15.4 9.3 6.4 55 4.4 NNW 28 39 15 21 1003.3 1003.3 0.0
21/10:00am 14.9 9.2 8.2 64 3.4 NNW 28 41 15 22 1003.4 1003.4 0.0
21/09:30am 14.2 6.9 7.3 63 3.4 NNW 35 50 19 27 1004.2 1004.2 0.0
21/09:00am 13.8 7.6 8.0 68 2.9 NNW 30 41 16 22 1004.2 1004.2 1.2
21/08:30am 13.1 8.8 8.0 71 2.5 NNW 20 32 11 17 1004.2 1004.2 1.2
21/08:00am 12.0 7.8 8.1 77 1.9 NNW 20 28 11 15 1004.4 1004.4 1.2
21/07:30am 11.1 7.0 8.0 81 1.5 NNW 19 28 10 15 1004.5 1004.5 1.2
21/07:00am 10.4 6.0 7.3 81 1.5 NNW 20 24 11 13 1004.6 1004.6 1.2
21/06:30am 10.1 5.8 7.0 81 1.5 NNW 19 26 10 14 1004.5 1004.5 1.2
21/06:00am 10.0 5.6 6.7 80 1.6 NNW 19 24 10 13 1004.2 1004.2 1.2
21/05:30am 10.3 6.0 6.8 79 1.7 N 19 28 10 15 1004.1 1004.1 1.2
21/05:00am 10.6 7.6 7.5 81 1.5 N 13 22 7 12 1004.1 1004.1 1.2
21/04:30am 10.5 6.8 7.9 84 1.3 NNW 17 20 9 11 1003.9 1003.9 1.2
21/04:00am 10.7 7.0 8.1 84 1.3 NNW 17 22 9 12 1003.7 1003.7 1.2
21/03:30am 11.0 7.5 8.6 85 1.2 NNW 17 22 9 12 1003.6 1003.6 1.2
21/03:00am 11.2 7.7 8.6 84 1.3 NNW 17 24 9 13 1003.8 1003.8 1.2
21/02:30am 11.4 8.0 9.0 85 1.2 NNW 17 22 9 12 1003.9 1003.9 1.2
21/02:00am 11.2 7.7 8.6 84 1.3 NNW 17 26 9 14 1004.0 1004.0 1.2
21/01:30am 11.8 8.4 9.0 83 1.4 NW 17 20 9 11 1004.2 1004.2 1.2
21/01:00am 12.6 8.3 9.4 81 1.6 NNW 22 32 12 17 1004.6 1004.6 1.2
21/12:30am 12.9 10.6 10.3 84 1.4 NNW 13 19 7 10 1004.6 1004.6 1.2
21/12:00am 12.7 10.0 10.4 86 1.2 NNW 15 19 8 10 1004.6 1004.6 1.2
 
Date/Time
CST
Temp
°C
App
Temp
°C
Dew
Point
°C
Rel
Hum
%
Delta-T
°C
Wind Press
QNH
hPa
Press
MSL
hPa
Rain since
9am
mm
Dir  Spd
km/h
Gust
km/h
Spd
kts
Gust
kts
20/11:30pm 13.2 11.1 9.8 80 1.8 NNW 11 22 6 12 1003.9 1003.9 1.0
20/11:00pm 13.4 10.4 10.6 83 1.5 WNW 17 24 9 13 1004.2 1004.2 0.8
20/10:30pm 14.1 8.3 10.7 80 1.8 W 32 41 17 22 1004.1 1004.1 0.8
20/10:00pm 15.0 8.5 10.4 74 2.4 WNW 35 50 19 27 1004.1 1004.1 0.8
20/09:30pm 15.9 10.4 12.3 79 2.0 WNW 33 43 18 23 1003.4 1003.4 0.8
20/09:00pm 16.7 12.4 13.2 80 2.0 WNW 28 37 15 20 1002.6 1002.6 0.8
20/08:41pm 17.6 11.5 13.1 75 2.5 NW 37 48 20 26 1002.4 1002.4 0.8
20/08:30pm 18.3 12.1 13.8 75 2.6 NNW 39 54 21 29 1002.3 1002.3 0.8
20/08:08pm 19.2 12.8 13.2 68 3.4 N 39 74 21 40 1001.4 1001.4 0.8
20/08:00pm 19.9 15.7 13.4 66 3.7 N 28 54 15 29 1000.4 1000.4 0.8
20/07:59pm 19.8 15.5 13.3 66 3.7 N 28 52 15 28 1000.3 1000.3 0.8
20/07:30pm 19.9 16.2 12.7 63 4.1 N 24 41 13 22 999.9 999.9 0.2
20/07:00pm 20.5 16.2 12.2 59 4.7 NNE 26 35 14 19 999.2 999.2 0.2
20/06:30pm 20.3 16.5 12.5 61 4.4 NNE 24 32 13 17 998.8 998.8 0.2
20/06:00pm 20.8 17.3 12.2 58 4.9 NNE 22 28 12 15 999.4 999.4 0.2
20/05:30pm 21.8 17.9 12.1 54 5.5 N 24 32 13 17 999.6 999.6 0.2
20/05:00pm 22.3 18.4 12.0 52 5.8 N 24 39 13 21 999.7 999.7 0.2
20/04:30pm 22.2 17.5 11.9 52 5.8 N 28 41 15 22 999.6 999.6 0.2
20/04:07pm 22.6 18.0 12.3 52 5.9 N 28 46 15 25 999.6 999.6 0.2
20/04:00pm 22.5 18.0 12.7 54 5.6 N 28 43 15 23 999.7 999.7 0.2
20/03:30pm 22.4 18.3 12.6 54 5.6 NNE 26 35 14 19 1000.0 1000.0 0.2
20/03:00pm 21.7 17.8 13.3 59 4.9 N 26 39 14 21 1000.8 1000.8 0.2
20/02:30pm 20.8 16.5 12.2 58 4.9 NNW 26 37 14 20 1001.3 1001.3 0.2
20/02:00pm 20.5 16.4 12.7 61 4.4 NNW 26 41 14 22 1001.6 1001.6 0.2
20/01:30pm 20.0 16.3 12.7 63 4.1 NNW 24 33 13 18 1002.1 1002.1 0.2
20/01:00pm 19.6 16.8 14.2 71 3.1 NNW 22 32 12 17 1002.8 1002.8 0.2
20/12:30pm 18.8 15.1 12.8 68 3.4 NNW 24 35 13 19 1003.5 1003.5 0.2
20/12:00pm 17.9 15.1 13.2 74 2.7 NNW 20 30 11 16 1004.2 1004.2 0.0
20/11:30am 17.9 15.2 13.4 75 2.6 NNW 20 30 11 16 1004.5 1004.5 0.0
20/11:00am 17.3 14.5 13.2 77 2.3 NNW 20 28 11 15 1005.0 1005.0 0.0
20/10:30am 16.8 14.2 13.3 80 2.0 NNW 19 28 10 15 1005.2 1005.2 0.0
20/10:00am 15.8 12.3 12.2 79 2.0 NNW 22 32 12 17 1005.7 1005.7 0.0
20/09:30am 15.5 11.2 12.1 80 1.9 NNW 26 32 14 17 1005.7 1005.7 0.0
20/09:00am 15.3 12.3 12.6 84 1.5 NNW 20 32 11 17 1005.7 1005.7 2.0
20/08:30am 15.0 12.1 13.0 88 1.1 NNW 20 30 11 16 1005.7 1005.7 2.0
20/08:00am 14.7 12.0 13.4 92 0.7 NNW 20 28 11 15 1005.6 1005.6 2.0
20/07:30am 14.2 11.9 13.1 93 0.6 NNW 17 24 9 13 1005.7 1005.7 2.0
20/07:00am 13.9 11.6 13.0 94 0.5 NNW 17 24 9 13 1005.5 1005.5 2.0
20/06:30am 13.9 11.6 13.0 94 0.5 NNW 17 22 9 12 1005.1 1005.1 2.0
20/06:00am 13.9 11.5 12.8 93 0.6 NNW 17 22 9 12 1004.7 1004.7 2.0
20/05:30am 14.2 11.9 13.1 93 0.6 NNW 17 20 9 11 1004.4 1004.4 2.0
20/05:00am 14.8 12.2 13.7 93 0.6 NNW 20 32 11 17 1004.4 1004.4 2.0
20/04:30am 14.7 12.6 13.7 94 0.6 NNW 17 20 9 11 1004.0 1004.0 2.0
20/04:00am 14.6 13.6 13.5 93 0.6 N 11 17 6 9 1003.9 1003.9 2.0
20/03:30am 14.4 14.1 13.3 93 0.6 N 7 11 4 6 1003.8 1003.8 2.0
20/03:00am 14.5 13.0 13.2 92 0.7 NNE 13 17 7 9 1004.0 1004.0 0.4
20/02:30am 14.4 12.9 13.0 91 0.8 NE 13 17 7 9 1003.7 1003.7 0.4
20/02:00am 14.9 12.0 12.9 88 1.1 NNE 20 32 11 17 1004.1 1004.1 0.4
20/01:30am 15.4 12.1 12.7 84 1.5 NNE 22 30 12 16 1004.0 1004.0 0.4
20/01:00am 16.3 14.3 13.8 85 1.4 NNE 17 20 9 11 1004.5 1004.5 0.4
20/12:30am 16.5 14.5 13.8 84 1.5 NNE 17 24 9 13 1004.4 1004.4 0.4

Other formats

Comma delimited format used in spreadsheet applications
http://www.bom.gov.au/fwo/IDS60801/IDS60801.94820.axf

JavaScript Object Notation format (JSON) in row-major order
http://www.bom.gov.au/fwo/IDS60801/IDS60801.94820.json

Data quality

Most of these data are generated automatically and are frequently updated. Quality checks on data are not normally performed. It is possible for incorrect values to appear. Refer to information at About Latest Weather Observations and please check the disclaimer before using these data.